createdAt,value
2018-04-07T00:00:37.194Z,8.50
2018-04-07T00:03:05.579Z,12.30
2018-04-07T00:05:33.945Z,9.10
2018-04-07T00:08:02.290Z,8.20
2018-04-07T00:10:30.602Z,5.17
2018-04-07T00:12:58.930Z,7.10
2018-04-07T00:15:27.980Z,6.90
2018-04-07T00:17:56.295Z,5.17
2018-04-07T00:20:24.579Z,9.13
2018-04-07T00:22:52.896Z,5.20
2018-04-07T00:25:21.223Z,6.17
2018-04-07T00:27:49.738Z,7.13
2018-04-07T00:30:18.395Z,6.10
2018-04-07T00:32:46.992Z,7.40
2018-04-07T00:35:16.114Z,4.70
2018-04-07T00:37:45.628Z,5.87
2018-04-07T00:40:13.980Z,4.83
2018-04-07T00:42:42.408Z,7.30
2018-04-07T00:45:11.543Z,3.67
2018-04-07T00:47:39.865Z,4.87
2018-04-07T00:50:08.958Z,5.33
2018-04-07T00:52:49.079Z,6.63
2018-04-07T00:55:18.274Z,9.30
2018-04-07T00:57:46.823Z,6.23
2018-04-07T01:00:15.261Z,9.83
2018-04-07T01:02:43.830Z,3.20
2018-04-07T01:05:12.175Z,2.70
2018-04-07T01:07:41.982Z,8.87
2018-04-07T01:10:10.353Z,7.90
2018-04-07T01:12:39.406Z,9.20
2018-04-07T01:15:07.742Z,10.10
2018-04-07T01:17:36.029Z,8.77
2018-04-07T01:20:04.429Z,6.47
2018-04-07T01:22:32.845Z,6.00
2018-04-07T01:25:01.171Z,3.43
2018-04-07T01:27:29.451Z,9.90
2018-04-07T01:29:57.775Z,13.17
2018-04-07T01:32:26.158Z,6.33
2018-04-07T01:34:54.478Z,6.67
2018-04-07T01:37:22.867Z,9.03
2018-04-07T01:39:51.366Z,6.00
2018-04-07T01:42:19.975Z,8.00
2018-04-07T01:44:48.832Z,9.30
2018-04-07T01:47:17.395Z,4.00
2018-04-07T01:49:45.905Z,9.50
2018-04-07T01:52:14.791Z,8.93
2018-04-07T01:54:43.305Z,9.03
2018-04-07T01:57:11.839Z,5.70
2018-04-07T01:59:40.186Z,5.87
2018-04-07T02:02:09.287Z,10.27
2018-04-07T02:04:37.562Z,5.80
2018-04-07T02:07:05.960Z,6.27
2018-04-07T02:09:34.349Z,6.47
2018-04-07T02:12:03.702Z,5.87
2018-04-07T02:14:32.002Z,7.17
2018-04-07T02:17:00.438Z,8.27
2018-04-07T02:19:29.522Z,4.43
2018-04-07T02:21:57.806Z,12.00
2018-04-07T02:24:26.135Z,7.77
2018-04-07T02:26:54.451Z,8.30
2018-04-07T02:29:22.743Z,6.67
2018-04-07T02:31:51.109Z,6.73
2018-04-07T02:34:19.738Z,6.60
2018-04-07T02:36:48.615Z,9.43
2018-04-07T02:39:17.389Z,8.30
2018-04-07T02:41:45.782Z,7.37
2018-04-07T02:44:14.236Z,8.33
2018-04-07T02:46:42.912Z,5.53
2018-04-07T02:49:11.258Z,10.93
2018-04-07T02:51:39.912Z,8.80
2018-04-07T02:54:08.189Z,6.70
2018-04-07T02:56:36.471Z,12.17
2018-04-07T02:59:04.931Z,11.20
2018-04-07T03:01:34.345Z,6.07
2018-04-07T03:04:02.760Z,5.40
2018-04-07T03:06:31.146Z,10.10
2018-04-07T03:08:59.423Z,6.90
2018-04-07T03:11:28.063Z,11.73
2018-04-07T03:13:56.363Z,7.60
2018-04-07T03:16:24.647Z,9.00
2018-04-07T03:18:52.963Z,6.50
2018-04-07T03:21:21.307Z,5.37
2018-04-07T03:23:50.492Z,9.63
2018-04-07T03:26:18.799Z,8.70
2018-04-07T03:28:48.315Z,8.87
2018-04-07T03:31:16.683Z,6.93
2018-04-07T03:33:45.941Z,4.10
2018-04-07T03:36:14.567Z,5.50
2018-04-07T03:38:42.944Z,8.17
2018-04-07T03:41:11.290Z,7.17
2018-04-07T03:43:39.606Z,12.33
2018-04-07T03:46:07.900Z,4.33
2018-04-07T03:48:36.278Z,9.63
2018-04-07T03:51:04.868Z,8.40
2018-04-07T03:53:33.347Z,4.83
2018-04-07T03:56:01.686Z,8.50
2018-04-07T03:58:29.958Z,4.60
2018-04-07T04:00:58.290Z,5.93
2018-04-07T04:03:26.611Z,9.03
2018-04-07T04:05:54.930Z,8.03
2018-04-07T04:08:23.210Z,4.10
2018-04-07T04:10:51.859Z,6.60
2018-04-07T04:13:20.512Z,10.23
2018-04-07T04:15:49.105Z,6.53
2018-04-07T04:18:17.637Z,6.10
2018-04-07T04:20:46.910Z,11.67
2018-04-07T04:23:15.960Z,7.60
2018-04-07T04:25:44.610Z,8.93
2018-04-07T04:28:13.653Z,9.20
2018-04-07T04:30:42.261Z,11.80
2018-04-07T04:33:10.672Z,14.87
2018-04-07T04:35:39.749Z,12.70
2018-04-07T04:38:08.079Z,10.97
2018-04-07T04:40:37.504Z,12.57
2018-04-07T04:43:07.189Z,10.15
2018-04-07T04:45:35.603Z,14.10
2018-04-07T04:48:03.960Z,10.77
2018-04-07T04:50:32.334Z,14.57
2018-04-07T04:53:00.713Z,12.67
2018-04-07T04:55:29.030Z,10.47
2018-04-07T04:57:57.346Z,19.23
2018-04-07T05:00:25.628Z,11.87
2018-04-07T05:02:53.963Z,15.80
2018-04-07T05:05:23.032Z,13.77
2018-04-07T05:07:51.504Z,11.07
2018-04-07T05:10:20.225Z,11.30
2018-04-07T05:12:48.678Z,13.03
2018-04-07T05:15:17.250Z,17.20
2018-04-07T05:17:45.874Z,16.00
2018-04-07T05:20:14.283Z,11.77
2018-04-07T05:22:43.197Z,10.20
2018-04-07T05:25:11.668Z,12.40
2018-04-07T05:27:39.987Z,13.00
2018-04-07T05:30:08.274Z,14.93
2018-04-07T05:32:36.554Z,12.00
2018-04-07T05:35:05.739Z,16.70
2018-04-07T05:37:34.101Z,12.40
2018-04-07T05:40:02.452Z,13.67
2018-04-07T05:42:30.738Z,11.33
2018-04-07T05:44:59.062Z,11.77
2018-04-07T05:47:27.373Z,12.00
2018-04-07T05:49:55.692Z,12.33
2018-04-07T05:52:24.796Z,17.30
2018-04-07T05:54:53.087Z,9.03
2018-04-07T05:57:21.363Z,15.70
2018-04-07T05:59:49.677Z,10.10
2018-04-07T06:02:17.968Z,16.43
2018-04-07T06:04:46.291Z,15.10
2018-04-07T06:07:14.665Z,11.13
2018-04-07T06:09:43.039Z,13.73
2018-04-07T06:12:11.318Z,8.13
2018-04-07T06:14:39.641Z,16.37
2018-04-07T06:17:07.926Z,13.00
2018-04-07T06:19:37.020Z,9.77
2018-04-07T06:22:05.302Z,9.20
2018-04-07T06:24:33.602Z,14.40
2018-04-07T06:27:01.906Z,9.00
2018-04-07T06:29:30.193Z,10.57
2018-04-07T06:31:58.506Z,9.97
2018-04-07T06:34:26.817Z,12.93
2018-04-07T06:36:55.141Z,16.63
2018-04-07T06:39:23.470Z,15.43
2018-04-07T06:41:52.558Z,13.53
2018-04-07T06:44:20.854Z,14.83
2018-04-07T06:46:49.151Z,16.60
2018-04-07T06:49:17.520Z,19.27
2018-04-07T06:51:45.856Z,9.17
2018-04-07T06:54:14.298Z,16.10
2018-04-07T06:56:43.362Z,14.87
2018-04-07T06:59:11.684Z,10.93
2018-04-07T07:01:39.979Z,12.50
2018-04-07T07:04:08.307Z,12.00
2018-04-07T07:06:36.634Z,14.97
2018-04-07T07:09:05.735Z,16.13
2018-04-07T07:11:34.078Z,15.83
2018-04-07T07:14:02.428Z,12.50
2018-04-07T07:16:32.287Z,15.80
2018-04-07T07:19:00.846Z,16.07
2018-04-07T07:21:29.158Z,17.90
2018-04-07T07:23:57.594Z,16.57
2018-04-07T07:26:27.210Z,15.73
2018-04-07T07:28:57.842Z,12.70
2018-04-07T07:31:27.688Z,16.07
2018-04-07T07:33:56.286Z,14.83
2018-04-07T07:36:25.542Z,15.33
2018-04-07T07:38:54.433Z,15.30
2018-04-07T07:41:23.125Z,16.70
2018-04-07T07:43:52.074Z,16.43
2018-04-07T07:46:21.691Z,17.43
2018-04-07T07:48:51.832Z,12.80
2018-04-07T07:51:20.557Z,14.53
2018-04-07T07:53:48.926Z,14.73
2018-04-07T07:56:18.082Z,15.60
2018-04-07T07:58:46.494Z,15.43
2018-04-07T08:01:14.825Z,10.87
2018-04-07T08:03:43.879Z,13.80
2018-04-07T08:06:12.323Z,16.70
2018-04-07T08:08:40.606Z,12.30
2018-04-07T08:11:10.542Z,10.40
2018-04-07T08:13:38.987Z,14.60
2018-04-07T08:16:07.582Z,13.60
2018-04-07T08:18:36.400Z,16.10
2018-04-07T08:21:05.826Z,12.37
2018-04-07T08:23:34.324Z,12.73
2018-04-07T08:26:03.666Z,8.47
2018-04-07T08:28:33.361Z,12.70
2018-04-07T08:31:03.642Z,12.60
2018-04-07T08:33:33.652Z,13.27
2018-04-07T08:36:04.130Z,9.60
2018-04-07T08:38:33.539Z,11.30
2018-04-07T08:41:01.899Z,10.87
2018-04-07T08:43:30.748Z,16.87
2018-04-07T08:46:00.646Z,11.37
2018-04-07T08:48:29.618Z,11.40
2018-04-07T08:50:59.181Z,13.00
2018-04-07T08:53:29.296Z,14.63
2018-04-07T08:55:59.261Z,9.73
2018-04-07T08:58:30.268Z,14.33
2018-04-07T09:01:00.747Z,15.40
2018-04-07T09:03:30.033Z,15.00
2018-04-07T09:05:58.799Z,16.37
2018-04-07T09:08:27.978Z,12.63
2018-04-07T09:10:57.303Z,16.50
2018-04-07T09:13:25.846Z,14.97
2018-04-07T09:15:54.211Z,13.73
2018-04-07T09:18:22.694Z,11.23
2018-04-07T09:20:51.062Z,18.63
2018-04-07T09:23:19.391Z,13.43
2018-04-07T09:25:48.595Z,15.83
2018-04-07T09:28:17.087Z,20.47
2018-04-07T09:30:45.378Z,12.57
2018-04-07T09:33:13.665Z,12.57
2018-04-07T09:35:42.656Z,12.10
2018-04-07T09:38:11.698Z,12.70
2018-04-07T09:40:40.034Z,15.07
2018-04-07T09:43:08.333Z,13.83
2018-04-07T09:45:36.738Z,12.73
2018-04-07T09:48:05.033Z,13.63
2018-04-07T09:50:33.359Z,10.77
2018-04-07T09:53:01.655Z,13.30
2018-04-07T09:55:30.053Z,15.43
2018-04-07T09:57:58.383Z,15.93
2018-04-07T10:00:27.471Z,14.50
2018-04-07T10:03:01.697Z,10.33
2018-04-07T10:05:30.014Z,14.27
2018-04-07T10:07:58.294Z,16.63
2018-04-07T10:10:26.939Z,12.17
2018-04-07T10:12:55.320Z,9.80
2018-04-07T10:15:23.624Z,14.03
2018-04-07T10:17:51.991Z,13.17
2018-04-07T10:20:20.275Z,9.83
2018-04-07T10:22:49.357Z,14.87
2018-04-07T10:25:17.950Z,12.33
2018-04-07T10:27:46.245Z,11.57
2018-04-07T10:30:14.530Z,12.80
2018-04-07T10:32:42.858Z,12.13
2018-04-07T10:35:11.155Z,14.77
2018-04-07T10:37:39.480Z,10.60
2018-04-07T10:40:08.074Z,10.33
2018-04-07T10:42:36.367Z,19.10
2018-04-07T10:45:04.656Z,15.03
2018-04-07T10:47:32.970Z,11.30
2018-04-07T10:50:01.267Z,13.70
2018-04-07T10:52:29.599Z,12.43
2018-04-07T10:54:57.881Z,14.83
2018-04-07T10:57:26.219Z,12.50
2018-04-07T10:59:54.581Z,12.17
2018-04-07T11:02:22.900Z,13.97
2018-04-07T11:04:51.239Z,11.80
2018-04-07T11:07:20.293Z,12.40
2018-04-07T11:09:48.579Z,11.93
2018-04-07T11:12:16.913Z,13.73
2018-04-07T11:14:45.199Z,10.10
2018-04-07T11:17:14.796Z,15.47
2018-04-07T11:19:43.887Z,13.73
2018-04-07T11:22:12.213Z,18.03
2018-04-07T11:24:41.306Z,13.13
2018-04-07T11:27:09.629Z,12.63
2018-04-07T11:29:37.916Z,14.17
2018-04-07T11:32:06.241Z,11.17
2018-04-07T11:34:34.560Z,15.60
2018-04-07T11:37:03.267Z,12.30
2018-04-07T11:39:32.310Z,10.83
2018-04-07T11:42:00.633Z,12.37
2018-04-07T11:44:28.914Z,12.17
2018-04-07T11:46:57.337Z,9.47
2018-04-07T11:49:25.634Z,9.10
2018-04-07T11:51:54.163Z,12.97
2018-04-07T11:54:22.597Z,11.50
2018-04-07T11:56:51.714Z,8.70
2018-04-07T11:59:20.805Z,8.50
2018-04-07T12:01:49.123Z,8.97
2018-04-07T12:04:17.438Z,8.80
2018-04-07T12:06:46.527Z,12.10
2018-04-07T12:09:14.927Z,10.30
2018-04-07T12:11:43.261Z,10.13
2018-04-07T12:14:11.631Z,13.20
2018-04-07T12:16:39.919Z,9.70
2018-04-07T12:19:08.390Z,11.63
2018-04-07T12:21:37.439Z,11.80
2018-04-07T12:24:05.754Z,10.70
2018-04-07T12:26:34.083Z,15.60
2018-04-07T12:29:02.362Z,9.90
2018-04-07T12:31:30.977Z,11.00
2018-04-07T12:33:59.436Z,11.47
2018-04-07T12:36:27.675Z,13.13
2018-04-07T12:38:56.002Z,13.87
2018-04-07T12:41:24.335Z,12.53
2018-04-07T12:43:52.663Z,10.13
2018-04-07T12:46:21.312Z,10.07
2018-04-07T12:48:49.703Z,8.57
2018-04-07T12:51:17.990Z,11.60
2018-04-07T12:53:46.325Z,11.20
2018-04-07T12:56:14.655Z,12.13
2018-04-07T12:58:43.756Z,11.10
2018-04-07T13:01:12.073Z,9.30
2018-04-07T13:03:41.361Z,8.30
2018-04-07T13:06:09.651Z,9.40
2018-04-07T13:08:37.956Z,14.03
2018-04-07T13:11:06.274Z,9.63
2018-04-07T13:13:34.554Z,10.67
2018-04-07T13:16:02.849Z,7.97
2018-04-07T13:18:31.176Z,10.10
2018-04-07T13:20:59.491Z,7.70
2018-04-07T13:23:27.772Z,8.80
2018-04-07T13:25:56.145Z,12.07
2018-04-07T13:28:24.488Z,10.93
2018-04-07T13:30:52.898Z,11.20
2018-04-07T13:33:22.758Z,11.63
2018-04-07T13:35:51.091Z,10.47
2018-04-07T13:38:19.443Z,12.07
2018-04-07T13:40:47.767Z,10.63
2018-04-07T13:43:16.834Z,10.43
2018-04-07T13:45:45.148Z,13.87
2018-04-07T13:48:13.480Z,12.20
2018-04-07T13:50:41.763Z,7.60
2018-04-07T13:53:10.169Z,11.43
2018-04-07T13:55:39.982Z,12.23
2018-04-07T13:58:08.304Z,8.90
2018-04-07T14:00:36.589Z,12.03
2018-04-07T14:03:04.920Z,10.47
2018-04-07T14:05:33.407Z,13.27
2018-04-07T14:08:01.704Z,8.27
2018-04-07T14:10:29.978Z,7.63
2018-04-07T14:12:58.295Z,13.97
2018-04-07T14:15:26.578Z,7.17
2018-04-07T14:17:54.940Z,13.43
2018-04-07T14:20:24.062Z,11.63
2018-04-07T14:22:53.377Z,12.53
2018-04-07T14:25:22.549Z,20.67
2018-04-07T14:27:50.872Z,30.70
2018-04-07T14:30:19.193Z,14.00
2018-04-07T14:32:47.497Z,22.23
2018-04-07T14:35:15.828Z,11.23
2018-04-07T14:37:44.906Z,9.97
2018-04-07T14:40:13.219Z,8.87
2018-04-07T14:42:41.573Z,11.27
2018-04-07T14:45:09.898Z,7.80
2018-04-07T14:47:38.182Z,6.60
2018-04-07T14:50:06.479Z,9.70
2018-04-07T14:52:34.800Z,15.90
2018-04-07T14:55:03.120Z,11.70
2018-04-07T14:57:31.438Z,8.93
2018-04-07T14:59:59.729Z,11.83
2018-04-07T15:02:28.016Z,11.07
2018-04-07T15:04:56.347Z,13.40
2018-04-07T15:07:24.891Z,9.53
2018-04-07T15:09:53.371Z,6.27
2018-04-07T15:12:22.015Z,9.63
2018-04-07T15:14:50.310Z,9.03
2018-04-07T15:17:18.643Z,42.50
2018-04-07T15:19:47.015Z,29.93
2018-04-07T15:22:15.283Z,24.50
2018-04-07T15:24:43.578Z,64.70
2018-04-07T15:27:11.961Z,86.33
2018-04-07T15:29:40.695Z,75.07
2018-04-07T15:32:08.986Z,59.63
2018-04-07T15:34:37.291Z,24.10
2018-04-07T15:37:05.626Z,48.60
2018-04-07T15:39:34.727Z,94.33
2018-04-07T15:42:03.024Z,14.07
2018-04-07T15:44:31.351Z,8.50
2018-04-07T15:47:00.399Z,9.03
2018-04-07T15:49:28.682Z,9.07
2018-04-07T15:51:57.766Z,8.77
2018-04-07T15:54:26.054Z,7.37
2018-04-07T15:56:54.440Z,8.90
2018-04-07T15:59:22.759Z,11.10
2018-04-07T16:01:51.700Z,12.70
2018-04-07T16:04:20.006Z,9.43
2018-04-07T16:06:48.421Z,10.70
2018-04-07T16:09:17.641Z,7.50
2018-04-07T16:11:45.986Z,8.90
2018-04-07T16:14:14.510Z,8.73
2018-04-07T16:16:42.795Z,8.27
2018-04-07T16:19:12.018Z,10.50
2018-04-07T16:21:40.404Z,9.10
2018-04-07T16:24:08.732Z,8.90
2018-04-07T16:26:37.076Z,9.37
2018-04-07T16:29:05.549Z,6.43
2018-04-07T16:31:33.840Z,9.87
2018-04-07T16:34:02.285Z,8.60
2018-04-07T16:36:30.604Z,8.30
2018-04-07T16:38:59.663Z,8.00
2018-04-07T16:41:28.112Z,11.23
2018-04-07T16:43:56.609Z,8.57
2018-04-07T16:46:24.930Z,11.33
2018-04-07T16:48:53.230Z,7.17
2018-04-07T16:51:21.555Z,8.57
2018-04-07T16:53:49.921Z,6.67
2018-04-07T16:56:18.312Z,9.40
2018-04-07T16:58:46.632Z,9.10
2018-04-07T17:01:14.910Z,8.30
2018-04-07T17:03:44.344Z,8.40
2018-04-07T17:06:12.653Z,12.20
2018-04-07T17:08:42.449Z,11.73
2018-04-07T17:11:11.004Z,11.43
2018-04-07T17:13:40.795Z,10.40
2018-04-07T17:16:09.217Z,12.43
2018-04-07T17:18:37.538Z,9.07
2018-04-07T17:21:05.867Z,10.57
2018-04-07T17:23:34.913Z,7.20
2018-04-07T17:26:03.230Z,9.93
2018-04-07T17:28:31.521Z,13.10
2018-04-07T17:30:59.846Z,11.33
2018-04-07T17:33:28.125Z,10.13
2018-04-07T17:35:56.458Z,12.20
2018-04-07T17:38:24.761Z,9.47
2018-04-07T17:40:53.117Z,9.37
2018-04-07T17:43:21.413Z,13.10
2018-04-07T17:45:49.766Z,9.57
2018-04-07T17:48:18.054Z,11.17
2018-04-07T17:50:46.462Z,9.47
2018-04-07T17:53:14.776Z,13.40
2018-04-07T17:55:43.482Z,11.40
2018-04-07T17:58:11.802Z,8.73
2018-04-07T18:00:40.094Z,11.20
2018-04-07T18:03:08.377Z,11.20
2018-04-07T18:05:36.829Z,9.30
2018-04-07T18:08:05.130Z,14.07
2018-04-07T18:10:35.260Z,12.63
2018-04-07T18:13:03.548Z,8.70
2018-04-07T18:15:31.827Z,10.73
2018-04-07T18:18:00.153Z,14.50
2018-04-07T18:20:28.442Z,11.20
2018-04-07T18:22:56.946Z,16.50
2018-04-07T18:25:25.314Z,10.83
2018-04-07T18:27:53.660Z,12.97
2018-04-07T18:30:22.181Z,11.93
2018-04-07T18:32:50.588Z,11.00
2018-04-07T18:35:19.108Z,10.27
2018-04-07T18:37:47.502Z,9.50
2018-04-07T18:40:15.791Z,14.87
2018-04-07T18:42:44.070Z,10.20
2018-04-07T18:45:12.404Z,14.00
2018-04-07T18:47:40.697Z,16.00
2018-04-07T18:50:08.984Z,11.43
2018-04-07T18:52:37.306Z,12.43
2018-04-07T18:55:05.635Z,12.23
2018-04-07T18:57:33.951Z,10.63
2018-04-07T19:00:03.008Z,12.17
2018-04-07T19:02:31.298Z,12.80
2018-04-07T19:04:59.636Z,10.90
2018-04-07T19:07:27.923Z,13.77
2018-04-07T19:09:56.284Z,9.97
2018-04-07T19:12:25.600Z,12.80
2018-04-07T19:14:54.686Z,15.80
2018-04-07T19:17:23.187Z,10.80
2018-04-07T19:19:51.802Z,16.10
2018-04-07T19:22:20.111Z,11.60
2018-04-07T19:24:48.443Z,12.47
2018-04-07T19:27:17.530Z,15.37
2018-04-07T19:29:45.956Z,14.10
2018-04-07T19:32:14.282Z,20.00
2018-04-07T19:34:42.634Z,17.30
2018-04-07T19:37:10.998Z,11.93
2018-04-07T19:39:39.302Z,13.03
2018-04-07T19:42:07.635Z,16.17
2018-04-07T19:44:35.931Z,17.70
2018-04-07T19:47:04.272Z,12.60
2018-04-07T19:49:33.342Z,14.10
2018-04-07T19:52:01.825Z,15.00
2018-04-07T19:54:30.293Z,14.67
2018-04-07T19:56:58.662Z,16.03
2018-04-07T19:59:26.985Z,16.10
2018-04-07T20:01:55.308Z,15.47
2018-04-07T20:04:23.813Z,16.30
2018-04-07T20:06:52.145Z,21.80
2018-04-07T20:09:20.474Z,15.83
2018-04-07T20:11:48.786Z,17.50
2018-04-07T20:14:17.283Z,21.30
2018-04-07T20:16:45.574Z,17.63
2018-04-07T20:19:14.134Z,17.53
2018-04-07T20:21:42.440Z,16.17
2018-04-07T20:24:11.494Z,15.63
2018-04-07T20:26:39.856Z,16.60
2018-04-07T20:29:08.157Z,16.00
2018-04-07T20:31:36.508Z,17.27
2018-04-07T20:34:05.249Z,17.93
2018-04-07T20:36:33.604Z,17.23
2018-04-07T20:39:02.758Z,17.40
2018-04-07T20:41:31.068Z,17.60
2018-04-07T20:43:59.390Z,17.73
2018-04-07T20:46:27.695Z,14.20
2018-04-07T20:48:56.026Z,24.20
2018-04-07T20:51:25.811Z,16.90
2018-04-07T20:53:54.318Z,20.60
2018-04-07T20:56:22.731Z,17.43
2018-04-07T20:58:51.057Z,20.50
2018-04-07T21:01:19.354Z,18.80
2018-04-07T21:03:49.186Z,19.20
2018-04-07T21:06:17.511Z,19.53
2018-04-07T21:08:46.606Z,18.30
2018-04-07T21:11:14.899Z,18.10
2018-04-07T21:13:43.234Z,15.07
2018-04-07T21:16:12.342Z,19.80
2018-04-07T21:18:41.402Z,20.30
2018-04-07T21:21:09.698Z,18.80
2018-04-07T21:23:38.391Z,18.37
2018-04-07T21:26:07.485Z,17.17
2018-04-07T21:28:35.779Z,19.73
2018-04-07T21:31:04.106Z,17.33
2018-04-07T21:33:33.170Z,23.43
2018-04-07T21:36:01.468Z,16.67
2018-04-07T21:38:29.803Z,20.70
2018-04-07T21:40:58.100Z,18.80
2018-04-07T21:43:26.614Z,17.87
2018-04-07T21:45:54.927Z,18.20
2018-04-07T21:48:23.239Z,17.80
2018-04-07T21:50:51.586Z,16.10
2018-04-07T21:53:19.922Z,15.47
2018-04-07T21:55:48.310Z,15.07
2018-04-07T21:58:16.634Z,18.60
2018-04-07T22:00:44.927Z,17.30
2018-04-07T22:03:13.246Z,15.07
2018-04-07T22:05:41.542Z,18.40
2018-04-07T22:08:09.970Z,20.07
2018-04-07T22:10:38.312Z,14.87
2018-04-07T22:13:06.597Z,17.37
2018-04-07T22:15:34.935Z,13.90
2018-04-07T22:18:03.228Z,14.47
2018-04-07T22:20:31.531Z,16.83
2018-04-07T22:22:59.855Z,16.33
2018-04-07T22:25:28.190Z,16.53
2018-04-07T22:27:57.267Z,15.50
2018-04-07T22:30:25.593Z,17.00
2018-04-07T22:32:54.048Z,14.90
2018-04-07T22:35:22.386Z,14.90
2018-04-07T22:37:50.711Z,14.53
2018-04-07T22:40:19.030Z,12.70
2018-04-07T22:42:48.132Z,14.57
2018-04-07T22:45:16.418Z,16.30
2018-04-07T22:47:45.123Z,13.67
2018-04-07T22:50:13.522Z,18.47
2018-04-07T22:52:41.928Z,12.07
2018-04-07T22:55:10.267Z,17.70
2018-04-07T22:57:39.373Z,13.47
2018-04-07T23:00:09.258Z,15.70
2018-04-07T23:02:38.118Z,13.57
2018-04-07T23:05:06.456Z,15.47
2018-04-07T23:07:34.829Z,14.03
2018-04-07T23:10:04.091Z,15.90
2018-04-07T23:12:32.418Z,15.93
2018-04-07T23:15:00.747Z,16.10
2018-04-07T23:17:29.083Z,14.00
2018-04-07T23:19:58.183Z,18.80
2018-04-07T23:22:28.014Z,17.17
2018-04-07T23:24:56.319Z,16.10
2018-04-07T23:27:24.654Z,20.47
2018-04-07T23:29:52.982Z,15.63
2018-04-07T23:32:21.330Z,16.53
2018-04-07T23:34:49.710Z,12.90
2018-04-07T23:37:18.038Z,13.80
2018-04-07T23:39:47.101Z,14.20
2018-04-07T23:42:15.434Z,14.70
2018-04-07T23:44:43.722Z,16.97
2018-04-07T23:47:12.049Z,13.13
2018-04-07T23:49:41.191Z,16.77
2018-04-07T23:52:09.595Z,15.20
2018-04-07T23:54:37.931Z,16.77
2018-04-07T23:57:06.261Z,12.83
2018-04-07T23:59:34.578Z,14.60
